sensor_id;sensor_type;location;lat;lon;timestamp;pressure;altitude;pressure_sealevel;temperature;humidity
15419;BME280;7808;43.712;23.098;2022-07-06T00:02:02;100471.03;;;21.28;100.00
15419;BME280;7808;43.712;23.098;2022-07-06T00:04:29;100476.94;;;21.30;100.00
15419;BME280;7808;43.712;23.098;2022-07-06T00:06:56;100461.59;;;21.22;100.00
15419;BME280;7808;43.712;23.098;2022-07-06T00:09:23;100458.03;;;21.18;100.00
15419;BME280;7808;43.712;23.098;2022-07-06T00:11:50;100453.72;;;21.24;100.00
15419;BME280;7808;43.712;23.098;2022-07-06T00:14:18;100440.72;;;21.18;100.00
15419;BME280;7808;43.712;23.098;2022-07-06T00:16:45;100443.50;;;21.07;100.00
15419;BME280;7808;43.712;23.098;2022-07-06T00:19:12;100440.34;;;21.05;100.00
15419;BME280;7808;43.712;23.098;2022-07-06T00:21:39;100432.06;;;21.05;100.00
15419;BME280;7808;43.712;23.098;2022-07-06T00:24:06;100441.13;;;21.13;100.00
15419;BME280;7808;43.712;23.098;2022-07-06T00:26:33;100439.53;;;21.15;100.00
15419;BME280;7808;43.712;23.098;2022-07-06T00:29:00;100444.66;;;21.13;100.00
15419;BME280;7808;43.712;23.098;2022-07-06T00:31:28;100445.84;;;21.09;100.00
15419;BME280;7808;43.712;23.098;2022-07-06T00:33:55;100442.69;;;21.14;100.00
15419;BME280;7808;43.712;23.098;2022-07-06T00:36:22;100444.25;;;21.25;100.00
15419;BME280;7808;43.712;23.098;2022-07-06T00:38:49;100437.56;;;21.33;100.00
15419;BME280;7808;43.712;23.098;2022-07-06T00:41:16;100443.84;;;21.41;100.00
15419;BME280;7808;43.712;23.098;2022-07-06T00:43:47;100445.81;;;21.47;100.00
15419;BME280;7808;43.712;23.098;2022-07-06T00:46:14;100449.38;;;21.51;100.00
15419;BME280;7808;43.712;23.098;2022-07-06T00:48:43;100452.50;;;21.60;100.00
15419;BME280;7808;43.712;23.098;2022-07-06T00:51:10;100447.75;;;21.68;100.00
15419;BME280;7808;43.712;23.098;2022-07-06T00:53:37;100441.06;;;21.66;100.00
15419;BME280;7808;43.712;23.098;2022-07-06T00:56:05;100454.88;;;21.58;100.00
15419;BME280;7808;43.712;23.098;2022-07-06T00:58:33;100428.06;;;21.52;100.00
15419;BME280;7808;43.712;23.098;2022-07-06T01:01:00;100429.25;;;21.62;100.00
15419;BME280;7808;43.712;23.098;2022-07-06T01:03:27;100437.91;;;21.71;100.00
15419;BME280;7808;43.712;23.098;2022-07-06T01:05:55;100434.75;;;21.69;100.00
15419;BME280;7808;43.712;23.098;2022-07-06T01:08:22;100437.13;;;21.59;100.00
15419;BME280;7808;43.712;23.098;2022-07-06T01:10:50;100443.47;;;21.28;100.00
15419;BME280;7808;43.712;23.098;2022-07-06T01:13:17;100456.47;;;21.31;100.00
15419;BME280;7808;43.712;23.098;2022-07-06T01:15:44;100458.84;;;21.22;100.00
15419;BME280;7808;43.712;23.098;2022-07-06T01:18:11;100461.59;;;21.22;100.00
15419;BME280;7808;43.712;23.098;2022-07-06T01:20:40;100455.69;;;21.27;100.00
15419;BME280;7808;43.712;23.098;2022-07-06T01:23:07;100454.91;;;21.34;100.00
15419;BME280;7808;43.712;23.098;2022-07-06T01:25:34;100453.72;;;21.24;100.00
15419;BME280;7808;43.712;23.098;2022-07-06T01:28:01;100446.63;;;21.30;100.00
15419;BME280;7808;43.712;23.098;2022-07-06T01:30:28;100447.41;;;21.20;100.00
15419;BME280;7808;43.712;23.098;2022-07-06T01:32:54;100457.66;;;21.16;100.00
15419;BME280;7808;43.712;23.098;2022-07-06T01:35:22;100456.88;;;21.19;100.00
15419;BME280;7808;43.712;23.098;2022-07-06T01:37:52;100467.47;;;21.03;100.00
15419;BME280;7808;43.712;23.098;2022-07-06T01:40:19;100460.78;;;20.97;100.00
15419;BME280;7808;43.712;23.098;2022-07-06T01:42:46;100467.09;;;21.05;100.00
15419;BME280;7808;43.712;23.098;2022-07-06T01:45:13;100471.44;;;21.13;100.00
15419;BME280;7808;43.712;23.098;2022-07-06T01:47:40;100474.94;;;20.99;100.00
15419;BME280;7808;43.712;23.098;2022-07-06T01:50:08;100461.97;;;20.92;100.00
15419;BME280;7808;43.712;23.098;2022-07-06T01:52:36;100483.59;;;20.94;100.00
15419;BME280;7808;43.712;23.098;2022-07-06T01:55:05;100491.06;;;20.76;100.00
15419;BME280;7808;43.712;23.098;2022-07-06T01:57:32;100497.72;;;20.61;100.00
15419;BME280;7808;43.712;23.098;2022-07-06T01:59:59;100511.03;;;20.52;100.00
15419;BME280;7808;43.712;23.098;2022-07-06T02:02:26;100511.06;;;20.62;100.00
15419;BME280;7808;43.712;23.098;2022-07-06T02:04:53;100525.25;;;20.61;100.00
15419;BME280;7808;43.712;23.098;2022-07-06T02:07:20;100527.56;;;20.52;100.00
15419;BME280;7808;43.712;23.098;2022-07-06T02:09:47;100533.88;;;20.59;100.00
15419;BME280;7808;43.712;23.098;2022-07-06T02:12:15;100529.19;;;20.67;100.00
15419;BME280;7808;43.712;23.098;2022-07-06T02:14:42;100541.78;;;20.64;100.00
15419;BME280;7808;43.712;23.098;2022-07-06T02:17:09;100546.50;;;20.64;100.00
15419;BME280;7808;43.712;23.098;2022-07-06T02:19:36;100534.31;;;20.72;100.00
15419;BME280;7808;43.712;23.098;2022-07-06T02:22:03;100547.31;;;20.68;100.00
15419;BME280;7808;43.712;23.098;2022-07-06T02:24:30;100543.34;;;20.69;100.00
15419;BME280;7808;43.712;23.098;2022-07-06T02:26:57;100537.47;;;20.74;100.00
15419;BME280;7808;43.712;23.098;2022-07-06T02:29:25;100533.94;;;20.77;100.00
15419;BME280;7808;43.712;23.098;2022-07-06T02:31:53;100527.66;;;20.73;100.00
15419;BME280;7808;43.712;23.098;2022-07-06T02:34:20;100519.75;;;20.71;100.00
15419;BME280;7808;43.712;23.098;2022-07-06T02:36:47;100522.13;;;20.66;100.00
15419;BME280;7808;43.712;23.098;2022-07-06T02:39:14;100520.13;;;20.66;100.00
15419;BME280;7808;43.712;23.098;2022-07-06T02:41:41;100526.44;;;20.67;100.00
15419;BME280;7808;43.712;23.098;2022-07-06T02:44:08;100522.13;;;20.66;100.00
15419;BME280;7808;43.712;23.098;2022-07-06T02:46:36;100515.03;;;20.72;100.00
15419;BME280;7808;43.712;23.098;2022-07-06T02:49:03;100521.38;;;20.76;100.00
15419;BME280;7808;43.712;23.098;2022-07-06T02:51:30;100524.50;;;20.78;100.00
15419;BME280;7808;43.712;23.098;2022-07-06T02:53:57;100518.19;;;20.81;100.00
15419;BME280;7808;43.712;23.098;2022-07-06T02:56:24;100520.56;;;20.79;100.00
15419;BME280;7808;43.712;23.098;2022-07-06T02:58:51;100524.50;;;20.81;100.00
15419;BME280;7808;43.712;23.098;2022-07-06T03:01:18;100524.13;;;20.79;100.00
15419;BME280;7808;43.712;23.098;2022-07-06T03:03:46;100522.16;;;20.83;100.00
15419;BME280;7808;43.712;23.098;2022-07-06T03:06:13;100538.66;;;20.76;100.00
15419;BME280;7808;43.712;23.098;2022-07-06T03:08:40;100534.72;;;20.74;100.00
15419;BME280;7808;43.712;23.098;2022-07-06T03:11:07;100540.22;;;20.67;100.00
15419;BME280;7808;43.712;23.098;2022-07-06T03:13:34;100537.09;;;20.75;100.00
15419;BME280;7808;43.712;23.098;2022-07-06T03:16:02;100541.78;;;20.68;100.00
15419;BME280;7808;43.712;23.098;2022-07-06T03:18:28;100538.69;;;20.83;100.00
15419;BME280;7808;43.712;23.098;2022-07-06T03:20:57;100540.22;;;20.74;100.00
15419;BME280;7808;43.712;23.098;2022-07-06T03:23:24;100548.09;;;20.72;100.00
15419;BME280;7808;43.712;23.098;2022-07-06T03:25:50;100542.22;;;20.77;100.00
15419;BME280;7808;43.712;23.098;2022-07-06T03:28:17;100533.16;;;20.80;100.00
15419;BME280;7808;43.712;23.098;2022-07-06T03:30:44;100541.06;;;20.92;100.00
15419;BME280;7808;43.712;23.098;2022-07-06T03:33:11;100537.53;;;20.88;100.00
15419;BME280;7808;43.712;23.098;2022-07-06T03:35:38;100540.69;;;20.90;100.00
15419;BME280;7808;43.712;23.098;2022-07-06T03:38:07;100534.78;;;20.95;100.00
15419;BME280;7808;43.712;23.098;2022-07-06T03:40:34;100524.56;;;20.99;100.00
15419;BME280;7808;43.712;23.098;2022-07-06T03:43:00;100529.28;;;20.95;100.00
15419;BME280;7808;43.712;23.098;2022-07-06T03:45:27;100537.94;;;20.97;100.00
15419;BME280;7808;43.712;23.098;2022-07-06T03:47:54;100529.69;;;21.04;100.00
15419;BME280;7808;43.712;23.098;2022-07-06T03:50:21;100534.06;;;21.12;100.00
15419;BME280;7808;43.712;23.098;2022-07-06T03:52:48;100534.84;;;21.09;100.00
15419;BME280;7808;43.712;23.098;2022-07-06T03:55:17;100535.63;;;21.20;100.00
15419;BME280;7808;43.712;23.098;2022-07-06T03:57:43;100531.69;;;21.28;100.00
15419;BME280;7808;43.712;23.098;2022-07-06T04:00:11;100534.84;;;21.30;100.00
15419;BME280;7808;43.712;23.098;2022-07-06T04:02:38;100532.09;;;21.37;100.00
15419;BME280;7808;43.712;23.098;2022-07-06T04:05:06;100531.72;;;21.46;100.00
15419;BME280;7808;43.712;23.098;2022-07-06T04:07:33;100541.16;;;21.55;100.00
15419;BME280;7808;43.712;23.098;2022-07-06T04:10:00;100533.28;;;21.75;100.00
15419;BME280;7808;43.712;23.098;2022-07-06T04:12:28;100537.97;;;21.82;100.00
15419;BME280;7808;43.712;23.098;2022-07-06T04:14:56;100536.81;;;21.86;100.00
15419;BME280;7808;43.712;23.098;2022-07-06T04:17:23;100542.34;;;21.90;100.00
15419;BME280;7808;43.712;23.098;2022-07-06T04:20:08;100545.09;;;21.97;100.00
15419;BME280;7808;43.712;23.098;2022-07-06T04:22:37;100531.31;;;21.90;100.00
15419;BME280;7808;43.712;23.098;2022-07-06T04:25:05;100545.88;;;21.94;100.00
15419;BME280;7808;43.712;23.098;2022-07-06T04:27:34;100544.28;;;22.07;100.00
15419;BME280;7808;43.712;23.098;2022-07-06T04:30:01;100530.09;;;22.01;100.00
15419;BME280;7808;43.712;23.098;2022-07-06T04:32:28;100544.66;;;22.12;100.00
15419;BME280;7808;43.712;23.098;2022-07-06T04:34:55;100552.97;;;22.12;100.00
15419;BME280;7808;43.712;23.098;2022-07-06T04:37:22;100561.22;;;22.09;100.00
15419;BME280;7808;43.712;23.098;2022-07-06T04:39:49;100564.78;;;22.06;100.00
15419;BME280;7808;43.712;23.098;2022-07-06T04:42:16;100565.97;;;22.12;100.00
15419;BME280;7808;43.712;23.098;2022-07-06T04:44:44;100564.00;;;22.12;100.00
15419;BME280;7808;43.712;23.098;2022-07-06T04:47:11;100563.22;;;22.12;100.00
15419;BME280;7808;43.712;23.098;2022-07-06T04:49:38;100566.75;;;22.12;100.00
15419;BME280;7808;43.712;23.098;2022-07-06T04:52:06;100565.56;;;22.17;100.00
15419;BME280;7808;43.712;23.098;2022-07-06T04:54:33;100561.59;;;22.18;100.00
15419;BME280;7808;43.712;23.098;2022-07-06T04:57:00;100567.91;;;22.25;100.00
15419;BME280;7808;43.712;23.098;2022-07-06T04:59:27;100575.78;;;22.34;100.00
15419;BME280;7808;43.712;23.098;2022-07-06T05:01:55;100579.66;;;22.47;100.00
15419;BME280;7808;43.712;23.098;2022-07-06T05:04:22;100575.69;;;22.62;100.00
15419;BME280;7808;43.712;23.098;2022-07-06T05:06:50;100579.63;;;22.58;100.00
15419;BME280;7808;43.712;23.098;2022-07-06T05:09:17;100582.78;;;22.60;100.00
15419;BME280;7808;43.712;23.098;2022-07-06T05:11:43;100584.38;;;22.64;100.00
15419;BME280;7808;43.712;23.098;2022-07-06T05:14:10;100589.50;;;22.59;100.00
15419;BME280;7808;43.712;23.098;2022-07-06T05:16:37;100586.75;;;22.62;100.00
15419;BME280;7808;43.712;23.098;2022-07-06T05:19:06;100577.28;;;22.53;100.00
15419;BME280;7808;43.712;23.098;2022-07-06T05:21:32;100585.97;;;22.62;100.00
15419;BME280;7808;43.712;23.098;2022-07-06T05:23:59;100587.13;;;22.64;100.00
15419;BME280;7808;43.712;23.098;2022-07-06T05:26:26;100584.34;;;22.71;100.00
15419;BME280;7808;43.712;23.098;2022-07-06T05:28:54;100591.47;;;22.69;100.00
15419;BME280;7808;43.712;23.098;2022-07-06T05:31:20;100593.03;;;22.73;100.00
15419;BME280;7808;43.712;23.098;2022-07-06T05:33:47;100592.19;;;22.83;100.00
15419;BME280;7808;43.712;23.098;2022-07-06T05:36:16;100583.56;;;22.67;100.00
15419;BME280;7808;43.712;23.098;2022-07-06T05:38:43;100582.78;;;22.74;100.00
15419;BME280;7808;43.712;23.098;2022-07-06T05:41:10;100593.34;;;22.89;100.00
15419;BME280;7808;43.712;23.098;2022-07-06T05:43:37;100600.06;;;22.85;100.00
15419;BME280;7808;43.712;23.098;2022-07-06T05:46:04;100601.66;;;22.86;100.00
15419;BME280;7808;43.712;23.098;2022-07-06T05:48:31;100607.16;;;22.93;100.00
15419;BME280;7808;43.712;23.098;2022-07-06T05:51:17;100606.38;;;22.89;100.00
15419;BME280;7808;43.712;23.098;2022-07-06T05:53:44;100598.44;;;22.95;100.00
15419;BME280;7808;43.712;23.098;2022-07-06T05:56:11;100609.13;;;22.96;100.00
15419;BME280;7808;43.712;23.098;2022-07-06T05:58:38;100600.03;;;22.96;100.00
15419;BME280;7808;43.712;23.098;2022-07-06T06:01:04;100593.00;;;22.80;100.00
15419;BME280;7808;43.712;23.098;2022-07-06T06:03:32;100603.19;;;22.98;100.00
15419;BME280;7808;43.712;23.098;2022-07-06T06:06:00;100595.69;;;22.95;100.00
15419;BME280;7808;43.712;23.098;2022-07-06T06:08:28;100604.72;;;23.06;100.00
15419;BME280;7808;43.712;23.098;2022-07-06T06:10:55;100601.53;;;23.11;100.00
15419;BME280;7808;43.712;23.098;2022-07-06T06:13:22;100603.09;;;23.12;100.00
15419;BME280;7808;43.712;23.098;2022-07-06T06:15:49;100600.75;;;23.10;100.00
15419;BME280;7808;43.712;23.098;2022-07-06T06:18:16;100600.66;;;23.21;100.00
15419;BME280;7808;43.712;23.098;2022-07-06T06:20:44;100607.66;;;23.43;100.00
15419;BME280;7808;43.712;23.098;2022-07-06T06:23:11;100591.84;;;23.43;100.00
15419;BME280;7808;43.712;23.098;2022-07-06T06:25:40;100596.53;;;23.53;100.00
15419;BME280;7808;43.712;23.098;2022-07-06T06:28:09;100596.44;;;23.64;100.00
15419;BME280;7808;43.712;23.098;2022-07-06T06:30:37;100592.38;;;23.79;100.00
15419;BME280;7808;43.712;23.098;2022-07-06T06:33:06;100589.47;;;23.93;100.00
15419;BME280;7808;43.712;23.098;2022-07-06T06:35:33;100596.13;;;23.99;100.00
15419;BME280;7808;43.712;23.098;2022-07-06T06:38:00;100596.84;;;24.10;100.00
15419;BME280;7808;43.712;23.098;2022-07-06T06:40:27;100591.19;;;24.21;100.00
15419;BME280;7808;43.712;23.098;2022-07-06T06:42:55;100578.47;;;24.27;100.00
15419;BME280;7808;43.712;23.098;2022-07-06T06:45:22;100593.28;;;24.47;100.00
15419;BME280;7808;43.712;23.098;2022-07-06T06:47:49;100590.69;;;24.67;100.00
15419;BME280;7808;43.712;23.098;2022-07-06T06:50:16;100600.91;;;24.70;100.00
15419;BME280;7808;43.712;23.098;2022-07-06T06:52:43;100595.00;;;24.68;100.00
15419;BME280;7808;43.712;23.098;2022-07-06T06:55:10;100596.31;;;24.60;100.00
15419;BME280;7808;43.712;23.098;2022-07-06T06:57:37;100591.88;;;24.66;100.00
15419;BME280;7808;43.712;23.098;2022-07-06T07:00:06;100602.34;;;24.85;100.00
15419;BME280;7808;43.712;23.098;2022-07-06T07:02:34;100598.41;;;24.83;100.00
15419;BME280;7808;43.712;23.098;2022-07-06T07:05:01;100594.03;;;24.85;100.00
15419;BME280;7808;43.712;23.098;2022-07-06T07:07:28;100587.75;;;24.81;100.00
15419;BME280;7808;43.712;23.098;2022-07-06T07:09:55;100592.84;;;24.86;100.00
15419;BME280;7808;43.712;23.098;2022-07-06T07:12:22;100584.19;;;24.80;100.00
15419;BME280;7808;43.712;23.098;2022-07-06T07:14:49;100590.19;;;25.06;100.00
15419;BME280;7808;43.712;23.098;2022-07-06T07:17:17;100600.41;;;25.12;100.00
15419;BME280;7808;43.712;23.098;2022-07-06T07:19:44;100600.66;;;25.21;100.00
15419;BME280;7808;43.712;23.098;2022-07-06T07:22:11;100597.06;;;25.24;100.00
15419;BME280;7808;43.712;23.098;2022-07-06T07:24:38;100589.19;;;25.19;100.00
15419;BME280;7808;43.712;23.098;2022-07-06T07:27:05;100601.50;;;25.18;100.00
15419;BME280;7808;43.712;23.098;2022-07-06T07:29:32;100605.00;;;25.22;100.00
15419;BME280;7808;43.712;23.098;2022-07-06T07:31:59;100590.78;;;25.20;100.00
15419;BME280;7808;43.712;23.098;2022-07-06T07:34:27;100594.00;;;25.46;100.00
15419;BME280;7808;43.712;23.098;2022-07-06T07:36:54;100591.25;;;25.42;100.00
15419;BME280;7808;43.712;23.098;2022-07-06T07:39:21;100608.59;;;25.50;99.74
15419;BME280;7808;43.712;23.098;2022-07-06T07:41:48;100611.47;;;25.42;100.00
15419;BME280;7808;43.712;23.098;2022-07-06T07:44:16;100605.00;;;25.22;100.00
15419;BME280;7808;43.712;23.098;2022-07-06T07:46:43;100602.75;;;25.14;100.00
15419;BME280;7808;43.712;23.098;2022-07-06T07:49:09;100604.91;;;25.29;100.00
15419;BME280;7808;43.712;23.098;2022-07-06T07:51:38;100604.91;;;25.29;100.00
15419;BME280;7808;43.712;23.098;2022-07-06T07:54:07;100600.28;;;25.19;100.00
15419;BME280;7808;43.712;23.098;2022-07-06T07:56:33;100593.28;;;25.11;100.00
15419;BME280;7808;43.712;23.098;2022-07-06T07:59:00;100602.38;;;25.12;100.00
15419;BME280;7808;43.712;23.098;2022-07-06T08:01:27;100604.66;;;25.20;100.00
15419;BME280;7808;43.712;23.098;2022-07-06T08:03:54;100616.16;;;25.19;100.00
15419;BME280;7808;43.712;23.098;2022-07-06T08:06:21;100606.41;;;25.07;100.00
15419;BME280;7808;43.712;23.098;2022-07-06T08:08:49;100619.56;;;25.03;100.00
15419;BME280;7808;43.712;23.098;2022-07-06T08:11:16;100598.09;;;25.07;100.00
15419;BME280;7808;43.712;23.098;2022-07-06T08:13:44;100603.59;;;25.11;100.00
15419;BME280;7808;43.712;23.098;2022-07-06T08:16:11;100607.75;;;24.96;100.00
15419;BME280;7808;43.712;23.098;2022-07-06T08:18:37;100610.47;;;24.99;100.00
15419;BME280;7808;43.712;23.098;2022-07-06T08:21:05;100616.88;;;24.96;100.00
15419;BME280;7808;43.712;23.098;2022-07-06T08:23:32;100616.09;;;24.96;100.00
15419;BME280;7808;43.712;23.098;2022-07-06T08:26:01;100615.28;;;24.95;100.00
15419;BME280;7808;43.712;23.098;2022-07-06T08:28:28;100619.34;;;24.87;100.00
15419;BME280;7808;43.712;23.098;2022-07-06T08:30:56;100615.75;;;24.90;100.00
15419;BME280;7808;43.712;23.098;2022-07-06T08:33:23;100618.16;;;24.88;100.00
15419;BME280;7808;43.712;23.098;2022-07-06T08:35:50;100620.66;;;24.79;100.00
15419;BME280;7808;43.712;23.098;2022-07-06T08:38:17;100628.53;;;24.84;100.00
15419;BME280;7808;43.712;23.098;2022-07-06T08:40:47;100620.91;;;24.92;100.00
15419;BME280;7808;43.712;23.098;2022-07-06T08:43:17;100620.66;;;25.09;100.00
15419;BME280;7808;43.712;23.098;2022-07-06T08:45:44;100615.06;;;25.13;100.00
15419;BME280;7808;43.712;23.098;2022-07-06T08:48:12;100608.25;;;25.17;100.00
15419;BME280;7808;43.712;23.098;2022-07-06T08:50:39;100616.22;;;25.15;100.00
15419;BME280;7808;43.712;23.098;2022-07-06T08:53:06;100618.09;;;25.22;100.00
15419;BME280;7808;43.712;23.098;2022-07-06T08:55:34;100615.78;;;25.43;100.00
15419;BME280;7808;43.712;23.098;2022-07-06T08:58:01;100620.25;;;25.64;100.00
15419;BME280;7808;43.712;23.098;2022-07-06T09:00:32;100618.81;;;25.56;100.00
15419;BME280;7808;43.712;23.098;2022-07-06T09:03:00;100615.28;;;25.79;100.00
15419;BME280;7808;43.712;23.098;2022-07-06T09:05:28;100609.59;;;25.86;100.00
15419;BME280;7808;43.712;23.098;2022-07-06T09:07:55;100604.03;;;25.86;100.00
15419;BME280;7808;43.712;23.098;2022-07-06T09:10:23;100604.69;;;25.93;100.00
15419;BME280;7808;43.712;23.098;2022-07-06T09:12:52;100603.66;;;26.07;100.00
15419;BME280;7808;43.712;23.098;2022-07-06T09:15:23;100604.78;;;26.13;100.00
15419;BME280;7808;43.712;23.098;2022-07-06T09:17:56;100605.91;;;26.16;99.46
15419;BME280;7808;43.712;23.098;2022-07-06T09:20:23;100602.66;;;26.21;98.81
15419;BME280;7808;43.712;23.098;2022-07-06T09:22:56;100606.22;;;26.21;100.00
15419;BME280;7808;43.712;23.098;2022-07-06T09:25:24;100612.69;;;26.15;100.00
15419;BME280;7808;43.712;23.098;2022-07-06T09:27:51;100616.47;;;26.24;100.00
15419;BME280;7808;43.712;23.098;2022-07-06T09:30:20;100619.31;;;26.21;99.16
15419;BME280;7808;43.712;23.098;2022-07-06T09:32:48;100617.09;;;26.12;100.00
15419;BME280;7808;43.712;23.098;2022-07-06T09:35:22;100620.28;;;26.10;98.27
15419;BME280;7808;43.712;23.098;2022-07-06T09:38:00;100618.31;;;26.11;95.85
15419;BME280;7808;43.712;23.098;2022-07-06T09:40:28;100615.72;;;25.97;97.94
15419;BME280;7808;43.712;23.098;2022-07-06T09:43:10;100616.47;;;26.01;97.07
15419;BME280;7808;43.712;23.098;2022-07-06T09:45:39;100603.56;;;25.91;95.33
15419;BME280;7808;43.712;23.098;2022-07-06T09:48:08;100605.53;;;25.90;97.61
15419;BME280;7808;43.712;23.098;2022-07-06T09:50:41;100605.38;;;26.01;96.87
15419;BME280;7808;43.712;23.098;2022-07-06T09:53:09;100596.22;;;26.00;96.66
15419;BME280;7808;43.712;23.098;2022-07-06T09:55:36;100609.84;;;26.18;97.22
15419;BME280;7808;43.712;23.098;2022-07-06T09:58:03;100610.28;;;26.36;96.45
15419;BME280;7808;43.712;23.098;2022-07-06T10:00:30;100603.66;;;26.69;92.03
15419;BME280;7808;43.712;23.098;2022-07-06T10:02:58;100609.94;;;26.93;91.37
15419;BME280;7808;43.712;23.098;2022-07-06T10:05:26;100612.22;;;26.98;88.79
15419;BME280;7808;43.712;23.098;2022-07-06T10:07:59;100603.81;;;27.02;89.36
15419;BME280;7808;43.712;23.098;2022-07-06T10:10:28;100610.75;;;26.94;88.75
15419;BME280;7808;43.712;23.098;2022-07-06T10:12:57;100604.84;;;27.08;89.07
15419;BME280;7808;43.712;23.098;2022-07-06T10:15:25;100615.19;;;27.07;88.87
15419;BME280;7808;43.712;23.098;2022-07-06T10:17:53;100611.59;;;26.91;90.03
15419;BME280;7808;43.712;23.098;2022-07-06T10:20:22;100602.91;;;26.89;91.17
15419;BME280;7808;43.712;23.098;2022-07-06T10:22:49;100606.03;;;26.91;89.20
15419;BME280;7808;43.712;23.098;2022-07-06T10:25:19;100610.91;;;26.87;90.58
15419;BME280;7808;43.712;23.098;2022-07-06T10:27:47;100611.09;;;26.76;89.36
15419;BME280;7808;43.712;23.098;2022-07-06T10:30:15;100610.59;;;26.81;91.38
15419;BME280;7808;43.712;23.098;2022-07-06T10:32:45;100602.09;;;26.68;91.50
15419;BME280;7808;43.712;23.098;2022-07-06T10:35:13;100602.09;;;26.68;88.74
15419;BME280;7808;43.712;23.098;2022-07-06T10:37:41;100600.91;;;26.69;91.96
15419;BME280;7808;43.712;23.098;2022-07-06T10:40:08;100601.03;;;26.62;89.98
15419;BME280;7808;43.712;23.098;2022-07-06T10:42:58;100604.88;;;26.68;92.67
15419;BME280;7808;43.712;23.098;2022-07-06T10:45:52;100602.88;;;26.49;88.38
15419;BME280;7808;43.712;23.098;2022-07-06T10:48:20;100595.88;;;26.41;89.85
15419;BME280;7808;43.712;23.098;2022-07-06T10:50:49;100587.41;;;26.48;87.10
15419;BME280;7808;43.712;23.098;2022-07-06T10:53:17;100587.28;;;26.36;87.39
15419;BME280;7808;43.712;23.098;2022-07-06T10:55:49;100597.53;;;26.39;84.74
15419;BME280;7808;43.712;23.098;2022-07-06T10:58:40;100592.63;;;26.46;88.21
15419;BME280;7808;43.712;23.098;2022-07-06T11:01:08;100582.78;;;26.61;90.44
15419;BME280;7808;43.712;23.098;2022-07-06T11:03:41;100577.16;;;26.65;87.77
15419;BME280;7808;43.712;23.098;2022-07-06T11:06:10;100582.44;;;26.79;87.52
15419;BME280;7808;43.712;23.098;2022-07-06T11:08:51;100583.44;;;26.89;88.12
15419;BME280;7808;43.712;23.098;2022-07-06T11:11:21;100571.47;;;27.08;87.29
15419;BME280;7808;43.712;23.098;2022-07-06T11:13:55;100575.66;;;27.16;84.08
15419;BME280;7808;43.712;23.098;2022-07-06T11:16:24;100571.50;;;27.24;84.48
15419;BME280;7808;43.712;23.098;2022-07-06T11:19:03;100570.03;;;27.35;83.09
15419;BME280;7808;43.712;23.098;2022-07-06T11:21:44;100560.72;;;27.26;85.56
15419;BME280;7808;43.712;23.098;2022-07-06T11:24:13;100566.66;;;27.44;81.18
15419;BME280;7808;43.712;23.098;2022-07-06T11:26:41;100559.69;;;27.68;84.04
15419;BME280;7808;43.712;23.098;2022-07-06T11:29:11;100563.34;;;27.81;83.23
15419;BME280;7808;43.712;23.098;2022-07-06T11:31:39;100555.88;;;27.62;80.49
15419;BME280;7808;43.712;23.098;2022-07-06T11:34:08;100551.16;;;27.59;83.15
15419;BME280;7808;43.712;23.098;2022-07-06T11:36:36;100543.84;;;27.49;80.66
15419;BME280;7808;43.712;23.098;2022-07-06T11:39:04;100550.28;;;27.62;82.39
15419;BME280;7808;43.712;23.098;2022-07-06T11:41:32;100528.88;;;27.59;81.78
15419;BME280;7808;43.712;23.098;2022-07-06T11:43:59;100541.72;;;27.85;81.56
15419;BME280;7808;43.712;23.098;2022-07-06T11:46:29;100542.53;;;28.15;80.84
15419;BME280;7808;43.712;23.098;2022-07-06T11:48:58;100538.63;;;28.41;81.03
15419;BME280;7808;43.712;23.098;2022-07-06T11:51:27;100542.91;;;28.58;78.94
15419;BME280;7808;43.712;23.098;2022-07-06T11:53:55;100535.81;;;28.70;78.16
15419;BME280;7808;43.712;23.098;2022-07-06T11:56:22;100532.03;;;28.76;75.57
15419;BME280;7808;43.712;23.098;2022-07-06T11:58:52;100523.09;;;28.94;78.02
15419;BME280;7808;43.712;23.098;2022-07-06T12:01:20;100518.88;;;29.02;74.34
15419;BME280;7808;43.712;23.098;2022-07-06T12:03:49;100522.13;;;29.25;71.78
15419;BME280;7808;43.712;23.098;2022-07-06T12:06:18;100515.09;;;29.21;68.41
15419;BME280;7808;43.712;23.098;2022-07-06T12:08:47;100517.19;;;28.92;66.19
15419;BME280;7808;43.712;23.098;2022-07-06T12:11:19;100515.41;;;28.85;69.04
15419;BME280;7808;43.712;23.098;2022-07-06T12:13:48;100505.91;;;28.70;66.35
15419;BME280;7808;43.712;23.098;2022-07-06T12:16:15;100518.63;;;28.71;65.06
15419;BME280;7808;43.712;23.098;2022-07-06T12:18:43;100509.06;;;28.97;65.16
15419;BME280;7808;43.712;23.098;2022-07-06T12:21:13;100524.91;;;28.88;63.36
15419;BME280;7808;43.712;23.098;2022-07-06T12:23:43;100508.47;;;29.15;64.32
15419;BME280;7808;43.712;23.098;2022-07-06T12:26:11;100498.97;;;29.38;62.09
15419;BME280;7808;43.712;23.098;2022-07-06T12:28:38;100500.09;;;29.27;64.49
15419;BME280;7808;43.712;23.098;2022-07-06T12:31:05;100491.31;;;29.63;64.58
15419;BME280;7808;43.712;23.098;2022-07-06T12:33:32;100488.59;;;29.85;60.07
15419;BME280;7808;43.712;23.098;2022-07-06T12:36:09;100484.44;;;29.89;61.58
15419;BME280;7808;43.712;23.098;2022-07-06T12:38:44;100486.50;;;29.64;60.36
15419;BME280;7808;43.712;23.098;2022-07-06T12:41:11;100487.66;;;29.54;58.93
15419;BME280;7808;43.712;23.098;2022-07-06T12:43:49;100487.16;;;29.34;60.30
15419;BME280;7808;43.712;23.098;2022-07-06T12:46:27;100477.66;;;29.18;62.29
15419;BME280;7808;43.712;23.098;2022-07-06T12:48:56;100471.63;;;29.20;59.78